Station Historical Data
Daily Summary for August 12, 2017 Units:  English    Metric   Both
« Previous Day
Next Day »
Daily Weekly Monthly Yearly Custom
  High: Low: Average:
Temperature: 77.6 °F 63.9 °F 69.5 °F
Dew Point: 66.8 °F 59.1 °F 63.8 °F
Humidity: 92% 65% 83%
Wind Speed: 17.0mph 0.0mph 3.4mph
Wind Gust: 21.0mph - -
Wind- - SW
Pressure: 29.91 in 29.84 in -
Precipitation: 0.00 in    
Historical Graphs
 
 
Tabular Data for August 12, 2017
Time Temperature Dew Point Pressure Wind Wind Speed Wind Gust Humidity Rainfall Rate (Hourly)
00:04 66.1 °F 60.8 °F 29.87 in SSW 2.0 mph 6.0 mph 83% 0.00 in
00:09 66.4 °F 61.1 °F 29.87 in SSW 3.0 mph 7.0 mph 83% 0.00 in
00:14 66.6 °F 61.3 °F 29.86 in SW 4.0 mph 7.0 mph 83% 0.00 in
00:19 66.8 °F 61.1 °F 29.86 in South 2.0 mph 5.0 mph 82% 0.00 in
00:24 66.8 °F 61.1 °F 29.86 in Calm   4.0 mph 82% 0.00 in
00:29 66.9 °F 61.2 °F 29.86 in Calm   3.0 mph 82% 0.00 in
00:34 66.9 °F 61.2 °F 29.87 in Calm   1.0 mph 82% 0.00 in
00:39 66.9 °F 61.2 °F 29.87 in Calm   4.0 mph 82% 0.00 in
00:44 66.9 °F 61.2 °F 29.87 in SSW 1.0 mph 4.0 mph 82% 0.00 in
00:49 66.8 °F 61.1 °F 29.87 in SSW 1.0 mph 4.0 mph 82% 0.00 in
00:54 66.8 °F 61.5 °F 29.86 in SSW 1.0 mph 4.0 mph 83% 0.00 in
00:59 66.9 °F 61.6 °F 29.86 in SSW 3.0 mph 6.0 mph 83% 0.00 in
01:04 67.0 °F 61.7 °F 29.86 in SSW 1.0 mph 7.0 mph 83% 0.00 in
01:09 67.2 °F 61.5 °F 29.86 in SW 2.0 mph 5.0 mph 82% 0.00 in
01:14 67.3 °F 62.0 °F 29.86 in SSW 1.0 mph 5.0 mph 83% 0.00 in
01:19 67.3 °F 62.0 °F 29.87 in SSW 1.0 mph 4.0 mph 83% 0.00 in
01:24 67.5 °F 62.2 °F 29.87 in SW 1.0 mph 3.0 mph 83% 0.00 in
01:29 67.6 °F 61.9 °F 29.87 in Calm     82% 0.00 in
01:34 67.7 °F 62.3 °F 29.87 in Calm     83% 0.01 in
01:39 67.6 °F 62.6 °F 29.88 in Calm     84% 0.05 in
01:44 67.2 °F 62.5 °F 29.88 in Calm   6.0 mph 85% 0.12 in
01:49 66.9 °F 62.6 °F 29.88 in Calm   6.0 mph 86% 0.16 in
01:54 66.7 °F 62.7 °F 29.88 in SE 1.0 mph 4.0 mph 87% 0.20 in
01:59 66.4 °F 62.7 °F 29.87 in SSE 2.0 mph 3.0 mph 88% 0.21 in
02:04 66.3 °F 62.6 °F 29.87 in SSE 1.0 mph 3.0 mph 88% 0.21 in
02:09 66.3 °F 63.0 °F 29.87 in SSE 1.0 mph 3.0 mph 89% 0.21 in
02:14 66.2 °F 62.9 °F 29.87 in Calm   1.0 mph 89% 0.21 in
02:19 66.2 °F 62.9 °F 29.87 in Calm   1.0 mph 89% 0.21 in
02:24 66.2 °F 63.2 °F 29.86 in Calm     90% 0.21 in
02:29 66.2 °F 63.2 °F 29.86 in Calm     90% 0.21 in
02:34 66.1 °F 63.1 °F 29.86 in Calm     90% 0.20 in
02:39 66.1 °F 63.1 °F 29.86 in Calm   3.0 mph 90% 0.16 in
02:44 66.1 °F 63.1 °F 29.86 in Calm   3.0 mph 90% 0.07 in
02:49 65.9 °F 62.9 °F 29.85 in South 3.0 mph 3.0 mph 90% 0.05 in
02:54 65.8 °F 62.8 °F 29.85 in South 1.0 mph 3.0 mph 90% 0.01 in
02:59 65.7 °F 62.7 °F 29.85 in SSE 1.0 mph 4.0 mph 90% 0.00 in
03:04 65.5 °F 62.5 °F 29.85 in Calm   4.0 mph 90% 0.00 in
03:09 65.5 °F 62.5 °F 29.85 in Calm     90% 0.00 in
03:14 65.3 °F 62.3 °F 29.85 in Calm   2.0 mph 90% 0.00 in
03:19 65.2 °F 62.2 °F 29.85 in Calm   2.0 mph 90% 0.00 in
03:24 65.2 °F 62.2 °F 29.85 in Calm   2.0 mph 90% 0.00 in
03:29 65.1 °F 62.4 °F 29.85 in Calm   3.0 mph 91% 0.00 in
03:34 65.0 °F 62.3 °F 29.85 in SSW 2.0 mph 4.0 mph 91% 0.00 in
03:39 65.0 °F 62.3 °F 29.85 in SSW 2.0 mph 5.0 mph 91% 0.00 in
03:44 65.0 °F 62.3 °F 29.85 in SSW 2.0 mph 5.0 mph 91% 0.00 in
03:49 65.0 °F 62.3 °F 29.85 in South 3.0 mph 5.0 mph 91% 0.00 in
03:54 65.0 °F 62.3 °F 29.85 in SSW 2.0 mph 5.0 mph 91% 0.00 in
03:59 65.0 °F 62.3 °F 29.85 in SSW 2.0 mph 5.0 mph 91% 0.00 in
04:04 65.0 °F 62.3 °F 29.85 in SSW 3.0 mph 7.0 mph 91% 0.00 in
04:09 64.9 °F 62.2 °F 29.85 in South 3.0 mph 7.0 mph 91% 0.00 in
04:14 65.0 °F 62.3 °F 29.85 in SSW 7.0 mph 7.0 mph 91% 0.00 in
04:19 65.1 °F 62.4 °F 29.84 in SSW 3.0 mph 7.0 mph 91% 0.00 in
04:24 65.1 °F 62.1 °F 29.84 in SSW 3.0 mph 7.0 mph 90% 0.00 in
04:29 65.1 °F 62.1 °F 29.84 in SSW 3.0 mph 7.0 mph 90% 0.00 in
04:34 65.2 °F 62.2 °F 29.84 in SSW 2.0 mph 7.0 mph 90% 0.00 in
04:39 65.2 °F 62.2 °F 29.84 in South 1.0 mph 4.0 mph 90% 0.00 in
04:44 65.1 °F 62.1 °F 29.84 in Calm   5.0 mph 90% 0.00 in
04:49 65.1 °F 62.1 °F 29.84 in SSW 1.0 mph 3.0 mph 90% 0.00 in
04:54 65.1 °F 62.1 °F 29.84 in SSW 1.0 mph 4.0 mph 90% 0.00 in
04:59 65.2 °F 62.2 °F 29.84 in SSW 1.0 mph 4.0 mph 90% 0.00 in
05:04 65.4 °F 62.4 °F 29.84 in SSW 1.0 mph 6.0 mph 90% 0.00 in
05:09 65.5 °F 62.5 °F 29.84 in SSW 1.0 mph 6.0 mph 90% 0.00 in
05:14 65.6 °F 62.6 °F 29.84 in SSW 1.0 mph 4.0 mph 90% 0.00 in
05:19 65.7 °F 62.7 °F 29.84 in SSW 1.0 mph 4.0 mph 90% 0.00 in
05:24 65.8 °F 62.8 °F 29.84 in SSW 2.0 mph 4.0 mph 90% 0.00 in
05:29 65.8 °F 62.8 °F 29.85 in SSW 1.0 mph 4.0 mph 90% 0.00 in
05:34 66.0 °F 63.0 °F 29.84 in Calm   5.0 mph 90% 0.00 in
05:39 66.1 °F 63.1 °F 29.84 in SW 1.0 mph 4.0 mph 90% 0.00 in
05:44 66.1 °F 63.1 °F 29.84 in Calm   2.0 mph 90% 0.00 in
05:49 66.1 °F 63.1 °F 29.84 in SW 4.0 mph 4.0 mph 90% 0.00 in
05:54 66.1 °F 63.1 °F 29.84 in SSW 2.0 mph 5.0 mph 90% 0.00 in
05:59 66.1 °F 63.1 °F 29.84 in SSW 1.0 mph 5.0 mph 90% 0.00 in
06:04 66.0 °F 63.0 °F 29.84 in SSW 1.0 mph 4.0 mph 90% 0.00 in
06:09 65.9 °F 62.6 °F 29.84 in Calm   4.0 mph 89% 0.00 in
06:14 65.9 °F 62.9 °F 29.85 in Calm     90% 0.00 in
06:19 65.9 °F 62.9 °F 29.85 in Calm     90% 0.00 in
06:24 66.0 °F 63.0 °F 29.85 in Calm     90% 0.00 in
06:29 66.1 °F 63.1 °F 29.85 in SSW 1.0 mph 6.0 mph 90% 0.00 in
06:34 66.2 °F 62.9 °F 29.85 in SSW 2.0 mph 6.0 mph 89% 0.00 in
06:39 66.3 °F 63.0 °F 29.85 in SSW 2.0 mph 7.0 mph 89% 0.00 in
06:44 66.4 °F 63.1 °F 29.85 in SW 3.0 mph 6.0 mph 89% 0.00 in
06:49 66.5 °F 63.2 °F 29.85 in SW 1.0 mph 6.0 mph 89% 0.00 in
06:54 66.6 °F 63.3 °F 29.85 in SSW 4.0 mph 4.0 mph 89% 0.00 in
06:59 66.8 °F 63.5 °F 29.85 in SSW 4.0 mph 6.0 mph 89% 0.00 in
07:04 67.0 °F 63.6 °F 29.85 in SSW 2.0 mph 7.0 mph 89% 0.00 in
07:09 67.1 °F 63.7 °F 29.85 in SSW 3.0 mph 7.0 mph 89% 0.00 in
07:14 67.2 °F 63.5 °F 29.85 in SSW 4.0 mph 8.0 mph 88% 0.00 in
07:19 67.3 °F 63.6 °F 29.85 in SSW 3.0 mph 8.0 mph 88% 0.00 in
07:24 67.6 °F 63.9 °F 29.85 in SW 3.0 mph 7.0 mph 88% 0.00 in
07:29 67.8 °F 64.1 °F 29.85 in SW 1.0 mph 6.0 mph 88% 0.00 in
07:34 67.9 °F 64.2 °F 29.85 in SW 2.0 mph 6.0 mph 88% 0.00 in
07:39 67.9 °F 64.2 °F 29.85 in SW 3.0 mph 8.0 mph 88% 0.00 in
07:44 68.1 °F 64.1 °F 29.85 in SSW 3.0 mph 8.0 mph 87% 0.00 in
07:49 68.2 °F 64.2 °F 29.85 in South 5.0 mph 7.0 mph 87% 0.00 in
07:54 68.5 °F 64.5 °F 29.85 in SW 4.0 mph 8.0 mph 87% 0.00 in
07:59 68.9 °F 64.9 °F 29.85 in SW 3.0 mph 7.0 mph 87% 0.00 in
08:04 69.2 °F 64.8 °F 29.85 in WSW 9.0 mph 9.0 mph 86% 0.00 in
08:09 69.3 °F 64.6 °F 29.85 in SW 4.0 mph 11.0 mph 85% 0.00 in
08:14 69.5 °F 64.8 °F 29.85 in SW 4.0 mph 11.0 mph 85% 0.00 in
08:19 69.6 °F 64.9 °F 29.85 in SW 4.0 mph 8.0 mph 85% 0.00 in
08:24 69.6 °F 64.9 °F 29.85 in SSW 4.0 mph 9.0 mph 85% 0.00 in
08:29 70.1 °F 65.4 °F 29.85 in SSW 4.0 mph 9.0 mph 85% 0.00 in
08:34 70.1 °F 65.0 °F 29.85 in SW 4.0 mph 10.0 mph 84% 0.00 in
08:39 70.2 °F 65.1 °F 29.85 in WSW 8.0 mph 9.0 mph 84% 0.00 in
08:44 70.0 °F 64.9 °F 29.85 in South 5.0 mph 10.0 mph 84% 0.00 in
08:49 70.3 °F 65.2 °F 29.85 in WSW 4.0 mph 8.0 mph 84% 0.00 in
08:54 70.4 °F 65.0 °F 29.85 in SSW 2.0 mph 7.0 mph 83% 0.00 in
08:59 70.4 °F 65.0 °F 29.85 in SSW 3.0 mph 9.0 mph 83% 0.00 in
09:04 70.8 °F 65.4 °F 29.85 in SW 2.0 mph 7.0 mph 83% 0.00 in
09:09 70.5 °F 64.7 °F 29.85 in SW 7.0 mph 9.0 mph 82% 0.00 in
09:14 70.4 °F 65.0 °F 29.85 in SW 4.0 mph 9.0 mph 83% 0.00 in
09:19 70.4 °F 65.0 °F 29.85 in SW 4.0 mph 9.0 mph 83% 0.00 in
09:24 70.4 °F 65.0 °F 29.85 in SSW 4.0 mph 9.0 mph 83% 0.00 in
09:29 70.8 °F 65.4 °F 29.85 in SSW 4.0 mph 10.0 mph 83% 0.00 in
09:34 71.1 °F 65.7 °F 29.85 in SW 5.0 mph 11.0 mph 83% 0.00 in
09:39 71.5 °F 66.1 °F 29.85 in SSW 3.0 mph 10.0 mph 83% 0.00 in
09:44 72.4 °F 66.6 °F 29.85 in SW 4.0 mph 10.0 mph 82% 0.00 in
09:49 73.0 °F 66.5 °F 29.84 in South 6.0 mph 11.0 mph 80% 0.00 in
09:54 72.7 °F 66.2 °F 29.84 in WSW 3.0 mph 9.0 mph 80% 0.00 in
09:59 72.3 °F 66.1 °F 29.85 in SW 7.0 mph 10.0 mph 81% 0.00 in
10:04 72.1 °F 66.3 °F 29.85 in SSW 4.0 mph 15.0 mph 82% 0.00 in
10:09 72.4 °F 66.6 °F 29.85 in SW 2.0 mph 10.0 mph 82% 0.00 in
10:14 72.9 °F 66.7 °F 29.85 in WSW 7.0 mph 14.0 mph 81% 0.00 in
10:19 72.2 °F 65.7 °F 29.85 in WSW 8.0 mph 14.0 mph 80% 0.00 in
10:24 70.1 °F 64.3 °F 29.86 in West 6.0 mph 14.0 mph 82% 0.00 in
10:29 69.2 °F 64.2 °F 29.86 in WNW 5.0 mph 13.0 mph 84% 0.00 in
10:34 68.9 °F 64.2 °F 29.86 in WNW 7.0 mph 10.0 mph 85% 0.00 in
10:39 68.8 °F 64.4 °F 29.86 in NNW 3.0 mph 7.0 mph 86% 0.01 in
10:44 68.4 °F 64.4 °F 29.86 in WNW 2.0 mph 7.0 mph 87% 0.01 in
10:49 68.7 °F 65.0 °F 29.86 in WNW 4.0 mph 7.0 mph 88% 0.01 in
10:54 69.9 °F 66.2 °F 29.85 in North 7.0 mph 8.0 mph 88% 0.01 in
10:59 70.1 °F 66.4 °F 29.86 in West 3.0 mph 7.0 mph 88% 0.01 in
11:04 70.6 °F 66.5 °F 29.86 in WNW 3.0 mph 7.0 mph 87% 0.01 in
11:09 70.8 °F 66.7 °F 29.86 in Calm   6.0 mph 87% 0.01 in
11:14 71.7 °F 66.6 °F 29.85 in West 4.0 mph 8.0 mph 84% 0.01 in
11:19 71.2 °F 65.8 °F 29.85 in WNW 4.0 mph 8.0 mph 83% 0.01 in
11:24 71.1 °F 66.4 °F 29.85 in WNW 3.0 mph 8.0 mph 85% 0.01 in
11:29 71.6 °F 66.5 °F 29.85 in West 1.0 mph 5.0 mph 84% 0.01 in
11:34 71.6 °F 66.2 °F 29.85 in WNW 2.0 mph 5.0 mph 83% 0.01 in
11:39 71.7 °F 66.3 °F 29.85 in West 3.0 mph 7.0 mph 83% 0.00 in
11:44 72.3 °F 66.5 °F 29.85 in West 8.0 mph 11.0 mph 82% 0.00 in
11:49 73.1 °F 66.6 °F 29.85 in West 5.0 mph 12.0 mph 80% 0.00 in
11:54 73.7 °F 66.4 °F 29.85 in West 5.0 mph 12.0 mph 78% 0.00 in
11:59 73.4 °F 66.5 °F 29.85 in WNW 5.0 mph 8.0 mph 79% 0.00 in
12:04 73.3 °F 66.4 °F 29.85 in West 2.0 mph 7.0 mph 79% 0.00 in
12:09 73.8 °F 66.1 °F 29.84 in WNW 2.0 mph 6.0 mph 77% 0.00 in
12:14 74.3 °F 66.6 °F 29.85 in West 2.0 mph 5.0 mph 77% 0.00 in
12:19 74.1 °F 65.3 °F 29.85 in West 3.0 mph 11.0 mph 74% 0.00 in
12:24 73.7 °F 63.7 °F 29.85 in West 5.0 mph 11.0 mph 71% 0.00 in
12:29 74.2 °F 63.8 °F 29.85 in WNW 3.0 mph 11.0 mph 70% 0.00 in
12:34 75.0 °F 64.5 °F 29.85 in WSW 6.0 mph 13.0 mph 70% 0.00 in
12:39 75.8 °F 63.2 °F 29.85 in SW 9.0 mph 13.0 mph 65% 0.00 in
12:44 75.4 °F 63.7 °F 29.85 in WSW 7.0 mph 14.0 mph 67% 0.00 in
12:49 75.0 °F 63.7 °F 29.85 in WSW 6.0 mph 12.0 mph 68% 0.00 in
12:54 75.6 °F 63.4 °F 29.85 in WSW 7.0 mph 14.0 mph 66% 0.00 in
12:59 75.3 °F 63.6 °F 29.85 in WSW 8.0 mph 14.0 mph 67% 0.00 in
13:04 75.6 °F 64.3 °F 29.85 in WSW 7.0 mph 13.0 mph 68% 0.00 in
13:09 75.4 °F 64.1 °F 29.85 in WSW 7.0 mph 14.0 mph 68% 0.00 in
13:14 75.6 °F 65.1 °F 29.84 in West 4.0 mph 11.0 mph 70% 0.00 in
13:19 75.8 °F 64.1 °F 29.85 in SSW 7.0 mph 15.0 mph 67% 0.00 in
13:24 76.0 °F 65.1 °F 29.85 in WSW 7.0 mph 15.0 mph 69% 0.00 in
13:29 76.0 °F 64.7 °F 29.85 in WSW 6.0 mph 12.0 mph 68% 0.00 in
13:34 76.7 °F 65.3 °F 29.85 in SW 6.0 mph 10.0 mph 68% 0.00 in
13:39 76.9 °F 65.5 °F 29.85 in WSW 4.0 mph 10.0 mph 68% 0.00 in
13:44 77.0 °F 65.2 °F 29.85 in West 8.0 mph 14.0 mph 67% 0.00 in
13:49 76.9 °F 65.5 °F 29.84 in SW 3.0 mph 14.0 mph 68% 0.00 in
13:54 76.8 °F 65.9 °F 29.84 in WSW 6.0 mph 14.0 mph 69% 0.00 in
13:59 77.6 °F 66.6 °F 29.84 in WSW 6.0 mph 10.0 mph 69% 0.00 in
14:04 77.1 °F 65.7 °F 29.84 in WSW 6.0 mph 13.0 mph 68% 0.00 in
14:09 76.7 °F 66.2 °F 29.84 in SW 7.0 mph 16.0 mph 70% 0.00 in
14:14 76.5 °F 66.8 °F 29.84 in WSW 8.0 mph 16.0 mph 72% 0.00 in
14:19 76.2 °F 65.7 °F 29.85 in WSW 8.0 mph 14.0 mph 70% 0.00 in
14:24 76.2 °F 65.7 °F 29.85 in West 6.0 mph 18.0 mph 70% 0.00 in
14:29 76.6 °F 66.1 °F 29.85 in WSW 8.0 mph 18.0 mph 70% 0.00 in
14:34 76.3 °F 65.0 °F 29.84 in WSW 3.0 mph 17.0 mph 68% 0.00 in
14:39 76.5 °F 64.3 °F 29.85 in SW 10.0 mph 17.0 mph 66% 0.00 in
14:44 76.0 °F 65.1 °F 29.85 in SW 8.0 mph 14.0 mph 69% 0.00 in
14:49 76.0 °F 63.8 °F 29.85 in WSW 4.0 mph 19.0 mph 66% 0.00 in
14:54 76.0 °F 64.2 °F 29.85 in West 6.0 mph 20.0 mph 67% 0.00 in
14:59 76.0 °F 63.8 °F 29.85 in West 8.0 mph 20.0 mph 66% 0.00 in
15:04 76.1 °F 64.8 °F 29.85 in WSW 8.0 mph 18.0 mph 68% 0.00 in
15:09 75.9 °F 65.0 °F 29.84 in WSW 8.0 mph 16.0 mph 69% 0.00 in
15:14 76.1 °F 65.6 °F 29.84 in SW 12.0 mph 15.0 mph 70% 0.00 in
15:19 76.2 °F 65.3 °F 29.84 in WSW 8.0 mph 15.0 mph 69% 0.00 in
15:24 76.2 °F 65.3 °F 29.84 in West 11.0 mph 15.0 mph 69% 0.00 in
15:29 75.5 °F 64.6 °F 29.84 in WSW 8.0 mph 16.0 mph 69% 0.00 in
15:34 75.5 °F 65.0 °F 29.84 in WSW 9.0 mph 19.0 mph 70% 0.00 in
15:39 75.5 °F 64.6 °F 29.84 in WSW 8.0 mph 20.0 mph 69% 0.00 in
15:44 75.8 °F 65.3 °F 29.84 in WSW 9.0 mph 20.0 mph 70% 0.00 in
15:49 75.9 °F 64.6 °F 29.84 in WSW 8.0 mph 18.0 mph 68% 0.00 in
15:54 75.5 °F 64.2 °F 29.85 in WSW 9.0 mph 18.0 mph 68% 0.00 in
15:59 75.4 °F 64.1 °F 29.84 in WNW 6.0 mph 19.0 mph 68% 0.00 in
16:04 75.2 °F 63.9 °F 29.84 in WSW 7.0 mph 18.0 mph 68% 0.00 in
16:09 75.4 °F 64.5 °F 29.84 in SW 9.0 mph 18.0 mph 69% 0.00 in
16:14 75.0 °F 63.7 °F 29.84 in WSW 15.0 mph 16.0 mph 68% 0.00 in
16:19 74.9 °F 64.5 °F 29.84 in WSW 7.0 mph 13.0 mph 70% 0.00 in
16:24 75.3 °F 64.4 °F 29.85 in WNW 8.0 mph 17.0 mph 69% 0.00 in
16:29 75.2 °F 63.5 °F 29.84 in SW 8.0 mph 17.0 mph 67% 0.00 in
16:34 75.2 °F 63.5 °F 29.85 in WSW 8.0 mph 17.0 mph 67% 0.00 in
16:39 74.9 °F 63.6 °F 29.85 in SW 8.0 mph 18.0 mph 68% 0.00 in
16:44 75.0 °F 63.7 °F 29.85 in SW 8.0 mph 18.0 mph 68% 0.00 in
16:49 74.8 °F 63.1 °F 29.85 in WSW 8.0 mph 19.0 mph 67% 0.00 in
16:54 75.0 °F 64.5 °F 29.85 in WSW 8.0 mph 19.0 mph 70% 0.00 in
16:59 74.4 °F 64.0 °F 29.85 in WSW 7.0 mph 18.0 mph 70% 0.00 in
17:04 74.6 °F 63.8 °F 29.85 in WSW 7.0 mph 18.0 mph 69% 0.00 in
17:09 74.0 °F 63.2 °F 29.85 in SSW 7.0 mph 17.0 mph 69% 0.00 in
17:14 73.6 °F 63.2 °F 29.84 in WSW 5.0 mph 21.0 mph 70% 0.00 in
17:19 73.7 °F 62.9 °F 29.84 in WSW 17.0 mph 17.0 mph 69% 0.00 in
17:24 73.7 °F 63.3 °F 29.84 in SW 9.0 mph 17.0 mph 70% 0.00 in
17:29 73.5 °F 63.1 °F 29.85 in SW 8.0 mph 16.0 mph 70% 0.00 in
17:34 73.5 °F 63.5 °F 29.85 in SW 10.0 mph 17.0 mph 71% 0.00 in
17:39 73.1 °F 62.7 °F 29.85 in WSW 9.0 mph 17.0 mph 70% 0.00 in
17:44 73.3 °F 63.7 °F 29.85 in WSW 9.0 mph 18.0 mph 72% 0.00 in
17:49 73.1 °F 63.9 °F 29.85 in SW 8.0 mph 18.0 mph 73% 0.00 in
17:54 72.7 °F 63.9 °F 29.84 in SW 7.0 mph 17.0 mph 74% 0.00 in
17:59 72.8 °F 64.4 °F 29.85 in SW 13.0 mph 16.0 mph 75% 0.00 in
18:04 72.1 °F 63.7 °F 29.85 in West 8.0 mph 20.0 mph 75% 0.00 in
18:09 71.8 °F 64.2 °F 29.85 in WSW 8.0 mph 20.0 mph 77% 0.00 in
18:14 71.9 °F 64.3 °F 29.85 in WSW 6.0 mph 13.0 mph 77% 0.00 in
18:19 71.7 °F 64.1 °F 29.84 in WSW 6.0 mph 13.0 mph 77% 0.00 in
18:24 71.4 °F 64.2 °F 29.84 in WSW 7.0 mph 12.0 mph 78% 0.00 in
18:29 71.4 °F 64.5 °F 29.84 in West 6.0 mph 18.0 mph 79% 0.00 in
18:34 71.4 °F 64.5 °F 29.84 in West 6.0 mph 16.0 mph 79% 0.00 in
18:39 71.3 °F 64.8 °F 29.85 in West 6.0 mph 15.0 mph 80% 0.00 in
18:44 70.5 °F 63.3 °F 29.86 in West 7.0 mph 16.0 mph 78% 0.03 in
18:49 67.6 °F 60.9 °F 29.88 in WNW 9.0 mph 21.0 mph 79% 0.29 in
18:54 64.7 °F 59.1 °F 29.86 in Calm   13.0 mph 82% 0.56 in
18:59 63.9 °F 59.6 °F 29.86 in WSW 5.0 mph 9.0 mph 86% 0.57 in
19:04 64.7 °F 61.1 °F 29.85 in SW 1.0 mph 6.0 mph 88% 0.59 in
19:09 65.3 °F 61.7 °F 29.86 in Calm   5.0 mph 88% 0.59 in
19:14 65.6 °F 61.9 °F 29.86 in SW 2.0 mph 5.0 mph 88% 0.59 in
19:19 66.0 °F 62.0 °F 29.86 in SW 2.0 mph 5.0 mph 87% 0.60 in
19:24 66.1 °F 62.4 °F 29.86 in SW 2.0 mph 2.0 mph 88% 0.60 in
19:29 66.4 °F 62.7 °F 29.86 in SW 1.0 mph 4.0 mph 88% 0.60 in
19:34 66.5 °F 62.8 °F 29.87 in SW 1.0 mph 5.0 mph 88% 0.60 in
19:39 66.4 °F 62.7 °F 29.87 in Calm   4.0 mph 88% 0.60 in
19:44 66.4 °F 62.7 °F 29.87 in SW 1.0 mph 4.0 mph 88% 0.57 in
19:49 66.4 °F 62.7 °F 29.87 in Calm   1.0 mph 88% 0.31 in
19:54 66.6 °F 62.9 °F 29.87 in Calm     88% 0.04 in
19:59 66.7 °F 63.0 °F 29.87 in Calm     88% 0.03 in
20:04 66.8 °F 63.1 °F 29.87 in Calm     88% 0.01 in
20:09 66.8 °F 63.1 °F 29.87 in Calm     88% 0.01 in
20:14 66.8 °F 63.1 °F 29.87 in Calm     88% 0.01 in
20:19 66.8 °F 63.1 °F 29.87 in Calm     88% 0.00 in
20:24 66.7 °F 63.4 °F 29.86 in Calm     89% 0.00 in
20:29 66.8 °F 63.5 °F 29.87 in Calm     89% 0.00 in
20:34 66.8 °F 63.8 °F 29.87 in Calm     90% 0.00 in
20:39 66.9 °F 63.9 °F 29.87 in Calm     90% 0.00 in
20:44 67.0 °F 64.0 °F 29.87 in Calm     90% 0.00 in
20:49 67.1 °F 64.1 °F 29.87 in Calm   4.0 mph 90% 0.00 in
20:54 67.1 °F 64.1 °F 29.88 in NE 1.0 mph 4.0 mph 90% 0.00 in
20:59 67.0 °F 64.0 °F 29.88 in Calm     90% 0.00 in
21:04 67.1 °F 64.4 °F 29.88 in Calm   5.0 mph 91% 0.01 in
21:09 67.2 °F 64.5 °F 29.88 in Calm     91% 0.06 in
21:14 67.4 °F 64.7 °F 29.88 in Calm     91% 0.06 in
21:19 67.4 °F 64.7 °F 29.88 in Calm     91% 0.06 in
21:24 67.4 °F 64.7 °F 29.88 in Calm     91% 0.06 in
21:29 67.4 °F 64.7 °F 29.89 in Calm     91% 0.06 in
21:34 67.5 °F 64.8 °F 29.89 in Calm     91% 0.06 in
21:39 67.6 °F 64.9 °F 29.89 in Calm     91% 0.06 in
21:44 67.6 °F 64.9 °F 29.89 in Calm     91% 0.06 in
21:49 67.4 °F 64.7 °F 29.89 in Calm     91% 0.06 in
21:54 67.2 °F 64.5 °F 29.89 in Calm     91% 0.06 in
21:59 67.3 °F 64.6 °F 29.89 in Calm     91% 0.06 in
22:04 67.2 °F 64.8 °F 29.89 in Calm     92% 0.05 in
22:09 67.2 °F 64.8 °F 29.89 in Calm   2.0 mph 92% 0.00 in
22:14 67.3 °F 64.9 °F 29.89 in Calm   3.0 mph 92% 0.00 in
22:19 67.5 °F 65.1 °F 29.89 in Calm   1.0 mph 92% 0.00 in
22:24 67.4 °F 65.0 °F 29.89 in Calm     92% 0.00 in
22:29 67.2 °F 64.8 °F 29.89 in Calm   3.0 mph 92% 0.00 in
22:34 67.1 °F 64.7 °F 29.89 in Calm   3.0 mph 92% 0.00 in
22:39 66.8 °F 64.4 °F 29.90 in Calm     92% 0.00 in
22:44 66.6 °F 63.9 °F 29.90 in Calm     91% 0.00 in
22:49 66.5 °F 63.8 °F 29.90 in Calm     91% 0.00 in
22:54 66.3 °F 63.6 °F 29.90 in Calm   5.0 mph 91% 0.00 in
22:59 66.2 °F 63.5 °F 29.90 in NW 1.0 mph 5.0 mph 91% 0.00 in
23:04 65.8 °F 63.1 °F 29.91 in NW 1.0 mph 4.0 mph 91% 0.00 in
23:09 65.5 °F 62.5 °F 29.91 in WNW 1.0 mph 5.0 mph 90% 0.00 in
23:14 65.4 °F 62.4 °F 29.91 in WNW 1.0 mph 5.0 mph 90% 0.00 in
23:24 65.0 °F 61.7 °F 29.91 in Calm   2.0 mph 89% 0.00 in
23:29 64.9 °F 61.6 °F 29.91 in Calm     89% 0.00 in
23:34 64.9 °F 61.9 °F 29.91 in Calm   3.0 mph 90% 0.00 in
23:39 64.8 °F 61.5 °F 29.91 in Calm     89% 0.00 in
23:44 64.7 °F 61.4 °F 29.91 in Calm   3.0 mph 89% 0.00 in
23:49 64.6 °F 61.3 °F 29.91 in Calm   3.0 mph 89% 0.00 in
23:54 64.4 °F 61.1 °F 29.91 in Calm   3.0 mph 89% 0.00 in
23:59 64.3 °F 61.0 °F 29.91 in Calm   5.0 mph 89% 0.00 in
Buffalo, New York, USA
Compliments of Weather Underground - 2.5 mb